createdAt,value
2022-09-25T00:02:11.463Z,96.68
2022-09-25T00:04:40.321Z,96.88
2022-09-25T00:07:09.116Z,96.43
2022-09-25T00:09:37.789Z,96.36
2022-09-25T00:12:06.435Z,95.89
2022-09-25T00:14:35.162Z,96.27
2022-09-25T00:17:03.925Z,96.20
2022-09-25T00:19:50.974Z,96.42
2022-09-25T00:22:28.275Z,96.13
2022-09-25T00:24:58.107Z,96.39
2022-09-25T00:27:27.076Z,96.36
2022-09-25T00:29:56.476Z,96.00
2022-09-25T00:32:25.368Z,96.60
2022-09-25T00:34:54.058Z,96.33
2022-09-25T00:37:23.351Z,95.51
2022-09-25T00:39:51.930Z,94.79
2022-09-25T00:42:22.995Z,94.55
2022-09-25T00:45:27.304Z,94.41
2022-09-25T00:48:07.571Z,94.56
2022-09-25T00:50:59.475Z,96.60
2022-09-25T00:53:33.611Z,94.77
2022-09-25T00:56:03.936Z,96.73
2022-09-25T00:58:36.916Z,97.85
2022-09-25T01:01:07.470Z,98.28
2022-09-25T01:03:37.256Z,97.76
2022-09-25T01:06:06.841Z,97.29
2022-09-25T01:08:35.865Z,97.45
2022-09-25T01:11:04.655Z,96.88
2022-09-25T01:13:33.861Z,96.99
2022-09-25T01:16:11.626Z,96.70
2022-09-25T01:19:04.411Z,96.88
2022-09-25T01:21:55.101Z,97.71
2022-09-25T01:24:35.982Z,97.57
2022-09-25T01:27:20.027Z,97.37
2022-09-25T01:30:07.170Z,97.36
2022-09-25T01:33:10.360Z,97.25
2022-09-25T01:35:58.710Z,97.09
2022-09-25T01:39:16.572Z,96.99
2022-09-25T01:41:54.572Z,96.93
2022-09-25T01:44:36.850Z,97.34
2022-09-25T01:47:15.555Z,97.23
2022-09-25T01:49:56.747Z,97.60
2022-09-25T01:52:33.377Z,97.61
2022-09-25T01:55:16.739Z,97.48
2022-09-25T01:57:54.029Z,97.86
2022-09-25T02:00:25.955Z,97.90
2022-09-25T02:03:22.836Z,97.99
2022-09-25T02:05:57.367Z,98.41
2022-09-25T02:08:46.506Z,98.75
2022-09-25T02:11:15.420Z,98.86
2022-09-25T02:13:59.147Z,98.84
2022-09-25T02:16:50.785Z,98.11
2022-09-25T02:19:38.733Z,97.89
2022-09-25T02:22:35.532Z,97.92
2022-09-25T02:25:15.574Z,98.22
2022-09-25T02:27:44.197Z,98.33
2022-09-25T02:30:13.026Z,98.41
2022-09-25T02:32:42.194Z,98.69
2022-09-25T02:35:11.004Z,98.75
2022-09-25T02:37:39.798Z,98.88
2022-09-25T02:40:11.958Z,98.54
2022-09-25T02:42:46.064Z,99.09
2022-09-25T02:45:36.797Z,98.86
2022-09-25T02:48:41.612Z,99.14
2022-09-25T02:51:35.889Z,98.63
2022-09-25T02:54:21.797Z,98.39
2022-09-25T02:57:11.967Z,97.91
2022-09-25T02:59:49.671Z,98.17
2022-09-25T03:02:20.586Z,98.05
2022-09-25T03:04:51.604Z,98.06
2022-09-25T03:07:21.047Z,98.07
2022-09-25T03:09:54.248Z,98.19
2022-09-25T03:12:22.822Z,98.56
2022-09-25T03:14:51.624Z,98.40
2022-09-25T03:17:23.453Z,98.29
2022-09-25T03:19:52.167Z,98.37
2022-09-25T03:22:21.566Z,98.39
2022-09-25T03:24:51.171Z,98.46
2022-09-25T03:27:21.919Z,98.66
2022-09-25T03:29:50.703Z,98.55
2022-09-25T03:32:19.688Z,98.69
2022-09-25T03:34:48.792Z,99.30
2022-09-25T03:37:17.719Z,99.21
2022-09-25T03:39:46.671Z,98.95
2022-09-25T03:42:15.361Z,98.90
2022-09-25T03:44:44.972Z,99.24
2022-09-25T03:47:13.722Z,99.02
2022-09-25T03:49:42.453Z,98.95
2022-09-25T03:52:14.829Z,98.74
2022-09-25T03:54:44.218Z,98.42
2022-09-25T03:57:13.109Z,97.74
2022-09-25T03:59:41.904Z,98.18
2022-09-25T04:02:11.038Z,98.25
2022-09-25T04:04:39.618Z,98.22
2022-09-25T04:07:09.360Z,98.22
2022-09-25T04:09:38.004Z,98.93
2022-09-25T04:12:07.806Z,98.58
2022-09-25T04:14:37.197Z,98.58
2022-09-25T04:17:05.991Z,98.72
2022-09-25T04:19:34.729Z,98.72
2022-09-25T04:22:03.459Z,98.39
2022-09-25T04:24:50.274Z,98.12
2022-09-25T04:27:22.999Z,97.97
2022-09-25T04:29:51.750Z,98.00
2022-09-25T04:32:39.075Z,98.10
2022-09-25T04:35:08.597Z,98.09
2022-09-25T04:37:37.364Z,97.16
2022-09-25T04:40:07.208Z,96.90
2022-09-25T04:42:35.964Z,96.83
2022-09-25T04:45:05.618Z,96.83
2022-09-25T04:47:34.362Z,96.60
2022-09-25T04:50:03.048Z,96.72
2022-09-25T04:52:32.139Z,96.73
2022-09-25T04:55:01.454Z,96.75
2022-09-25T04:57:56.789Z,96.55
2022-09-25T05:00:20.197Z,96.37
2022-09-25T05:02:49.773Z,96.34
2022-09-25T05:05:19.539Z,96.08
2022-09-25T05:07:56.893Z,95.75
2022-09-25T05:10:32.177Z,95.66
2022-09-25T05:13:05.360Z,95.76
2022-09-25T05:15:34.559Z,95.69
2022-09-25T05:18:19.195Z,95.78
2022-09-25T05:20:48.938Z,95.77
2022-09-25T05:23:18.148Z,95.18
2022-09-25T05:26:02.654Z,94.78
2022-09-25T05:28:33.546Z,94.57
2022-09-25T05:31:04.340Z,94.34
2022-09-25T05:33:35.510Z,93.99
2022-09-25T05:36:07.793Z,93.75
2022-09-25T05:38:39.706Z,92.86
2022-09-25T05:41:11.082Z,92.18
2022-09-25T05:43:43.385Z,91.70
2022-09-25T05:46:12.341Z,92.05
2022-09-25T05:48:41.184Z,90.46
2022-09-25T05:51:10.760Z,89.63
2022-09-25T05:53:39.552Z,88.93
2022-09-25T05:56:08.341Z,88.87
2022-09-25T05:58:37.131Z,89.67
2022-09-25T06:01:07.093Z,86.62
2022-09-25T06:03:36.448Z,86.44
2022-09-25T06:06:06.738Z,86.03
2022-09-25T06:08:38.748Z,83.99
2022-09-25T06:11:08.462Z,85.49
2022-09-25T06:13:38.375Z,85.34
2022-09-25T06:16:15.505Z,85.02
2022-09-25T06:18:44.763Z,81.44
2022-09-25T06:21:14.495Z,80.62
2022-09-25T06:23:45.661Z,79.91
2022-09-25T06:26:14.606Z,79.21
2022-09-25T06:28:43.502Z,78.83
2022-09-25T06:31:12.439Z,77.92
2022-09-25T06:33:42.343Z,79.83
2022-09-25T06:36:10.926Z,76.92
2022-09-25T06:38:39.969Z,75.87
2022-09-25T06:41:08.654Z,77.40
2022-09-25T06:43:37.335Z,76.03
2022-09-25T06:46:06.103Z,74.61
2022-09-25T06:48:35.579Z,73.99
2022-09-25T06:51:04.349Z,73.62
2022-09-25T06:53:32.991Z,73.11
2022-09-25T06:56:01.981Z,72.85
2022-09-25T06:58:31.084Z,72.32
2022-09-25T07:01:00.526Z,71.22
2022-09-25T07:03:47.486Z,71.89
2022-09-25T07:06:26.693Z,72.52
2022-09-25T07:08:57.344Z,70.70
2022-09-25T07:11:28.577Z,68.27
2022-09-25T07:13:57.633Z,66.86
2022-09-25T07:16:30.187Z,67.54
2022-09-25T07:19:01.330Z,66.36
2022-09-25T07:21:32.476Z,67.42
2022-09-25T07:24:04.360Z,64.52
2022-09-25T07:26:34.736Z,63.32
2022-09-25T07:29:08.983Z,64.31
2022-09-25T07:31:40.490Z,63.12
2022-09-25T07:34:09.686Z,63.51
2022-09-25T07:36:43.024Z,62.74
2022-09-25T07:39:14.892Z,65.23
2022-09-25T07:41:47.487Z,62.10
2022-09-25T07:44:37.435Z,62.05
2022-09-25T07:47:05.588Z,63.36
2022-09-25T07:49:35.336Z,63.19
2022-09-25T07:52:06.891Z,62.13
2022-09-25T07:54:36.806Z,61.62
2022-09-25T07:57:05.830Z,61.56
2022-09-25T07:59:34.514Z,62.59
2022-09-25T08:02:04.092Z,61.05
2022-09-25T08:04:32.846Z,60.06
2022-09-25T08:07:01.515Z,59.58
2022-09-25T08:09:30.497Z,61.13
2022-09-25T08:11:59.192Z,59.68
2022-09-25T08:14:27.813Z,60.22
2022-09-25T08:16:56.655Z,58.68
2022-09-25T08:19:25.536Z,58.56
2022-09-25T08:21:54.226Z,59.26
2022-09-25T08:24:23.023Z,59.88
2022-09-25T08:26:51.809Z,58.88
2022-09-25T08:29:20.466Z,57.74
2022-09-25T08:31:49.389Z,56.50
2022-09-25T08:37:08.598Z,56.96
2022-09-25T08:39:37.516Z,56.34
2022-09-25T08:42:06.863Z,57.43
2022-09-25T08:45:08.974Z,55.98
2022-09-25T08:47:57.217Z,57.60
2022-09-25T08:50:29.913Z,56.93
2022-09-25T08:56:13.472Z,54.11
2022-09-25T08:58:57.207Z,53.32
2022-09-25T09:01:43.114Z,52.80
2022-09-25T09:04:34.305Z,53.69
2022-09-25T09:07:32.616Z,51.00
2022-09-25T09:10:27.055Z,49.12
2022-09-25T09:13:23.907Z,49.98
2022-09-25T09:16:07.009Z,49.24
2022-09-25T09:18:41.349Z,50.59
2022-09-25T09:21:28.459Z,49.99
2022-09-25T09:24:08.274Z,48.95
2022-09-25T09:27:24.881Z,48.69
2022-09-25T09:30:44.853Z,48.48
2022-09-25T09:33:39.406Z,44.68
2022-09-25T09:36:28.271Z,43.69
2022-09-25T09:39:26.439Z,43.45
2022-09-25T09:42:45.820Z,43.91
2022-09-25T09:46:08.060Z,43.13
2022-09-25T09:49:13.031Z,41.11
2022-09-25T09:51:56.286Z,40.55
2022-09-25T09:54:48.546Z,40.58
2022-09-25T09:57:33.435Z,41.19
2022-09-25T10:00:18.071Z,40.15
2022-09-25T10:03:01.162Z,40.21
2022-09-25T10:05:40.126Z,40.27
2022-09-25T10:08:12.368Z,38.88
2022-09-25T10:10:48.224Z,39.12
2022-09-25T10:13:36.394Z,39.82
2022-09-25T10:16:17.792Z,39.08
2022-09-25T10:19:20.252Z,38.58
2022-09-25T10:22:01.136Z,39.05
2022-09-25T10:25:02.210Z,39.19
2022-09-25T10:27:40.685Z,40.40
2022-09-25T10:30:09.432Z,40.72
2022-09-25T10:32:58.219Z,38.17
2022-09-25T10:35:39.260Z,38.24
2022-09-25T10:38:48.709Z,38.58
2022-09-25T10:41:20.362Z,37.42
2022-09-25T10:44:01.342Z,37.18
2022-09-25T10:46:53.412Z,38.04
2022-09-25T10:49:44.529Z,36.03
2022-09-25T10:52:20.083Z,35.93
2022-09-25T10:54:48.733Z,34.62
2022-09-25T10:57:38.617Z,35.14
2022-09-25T11:00:26.095Z,35.39
2022-09-25T11:03:03.081Z,34.35
2022-09-25T11:05:37.831Z,32.45
2022-09-25T11:08:09.517Z,32.68
2022-09-25T11:10:57.419Z,33.02
2022-09-25T11:13:37.137Z,30.84
2022-09-25T11:16:12.206Z,29.85
2022-09-25T11:18:51.988Z,30.79
2022-09-25T11:21:39.042Z,30.68
2022-09-25T11:24:25.541Z,30.55
2022-09-25T11:27:31.500Z,30.65
2022-09-25T11:30:10.289Z,30.67
2022-09-25T11:33:45.195Z,28.64
2022-09-25T11:36:25.422Z,29.18
2022-09-25T11:39:22.920Z,28.68
2022-09-25T11:42:02.548Z,28.55
2022-09-25T11:44:59.796Z,29.54
2022-09-25T11:48:22.985Z,27.94
2022-09-25T11:51:13.139Z,27.66
2022-09-25T11:54:32.712Z,28.46
2022-09-25T11:58:03.131Z,28.56
2022-09-25T12:00:49.876Z,28.28
2022-09-25T12:03:43.888Z,28.12
2022-09-25T12:06:45.069Z,26.79
2022-09-25T12:09:42.766Z,27.53
2022-09-25T12:12:32.522Z,25.56
2022-09-25T12:15:25.770Z,27.98
2022-09-25T12:18:34.393Z,26.96
2022-09-25T12:21:15.538Z,26.57
2022-09-25T12:23:59.413Z,27.03
2022-09-25T12:27:13.927Z,27.08
2022-09-25T12:30:00.113Z,27.49
2022-09-25T12:32:42.233Z,27.33
2022-09-25T12:35:31.964Z,26.39
2022-09-25T12:38:12.118Z,25.40
2022-09-25T12:41:10.420Z,25.28
2022-09-25T12:43:54.181Z,25.40
2022-09-25T12:46:38.088Z,26.39
2022-09-25T12:49:29.553Z,25.50
2022-09-25T12:52:11.858Z,24.49
2022-09-25T12:55:14.695Z,24.71
2022-09-25T12:58:21.402Z,24.36
2022-09-25T13:01:00.946Z,23.20
2022-09-25T13:03:56.931Z,24.04
2022-09-25T13:06:53.387Z,25.55
2022-09-25T13:09:46.744Z,26.25
2022-09-25T13:12:33.553Z,26.41
2022-09-25T13:15:09.023Z,25.98
2022-09-25T13:17:38.914Z,24.67
2022-09-25T13:20:29.872Z,22.82
2022-09-25T13:23:10.347Z,22.73
2022-09-25T13:25:54.025Z,23.24
2022-09-25T13:28:30.917Z,22.37
2022-09-25T13:31:08.725Z,23.06
2022-09-25T13:34:00.938Z,23.03
2022-09-25T13:36:42.293Z,22.86
2022-09-25T13:39:39.831Z,22.91
2022-09-25T13:42:24.764Z,23.23
2022-09-25T13:45:06.666Z,24.18
2022-09-25T13:47:41.146Z,25.68
2022-09-25T13:50:13.443Z,23.94
2022-09-25T13:52:41.999Z,25.14
2022-09-25T13:55:13.581Z,25.38
2022-09-25T13:57:58.710Z,24.56
2022-09-25T14:00:53.747Z,25.35
2022-09-25T14:03:46.111Z,25.92
2022-09-25T14:06:23.446Z,25.90
2022-09-25T14:08:57.303Z,26.63
2022-09-25T14:11:33.555Z,27.41
2022-09-25T14:14:05.639Z,28.20
2022-09-25T14:16:46.718Z,29.46
2022-09-25T14:19:27.360Z,29.91
2022-09-25T14:21:57.702Z,31.06
2022-09-25T14:24:29.811Z,31.63
2022-09-25T14:27:02.250Z,31.51
2022-09-25T14:29:39.047Z,32.46
2022-09-25T14:32:55.087Z,33.03
2022-09-25T14:35:52.231Z,33.15
2022-09-25T14:38:54.729Z,34.23
2022-09-25T14:42:03.201Z,34.70
2022-09-25T14:44:53.438Z,34.79
2022-09-25T14:47:24.124Z,34.53
2022-09-25T14:49:54.429Z,34.52
2022-09-25T14:52:28.878Z,34.98
2022-09-25T14:55:00.538Z,35.16
2022-09-25T14:57:39.925Z,35.50
2022-09-25T15:00:17.250Z,35.73
2022-09-25T15:02:48.357Z,36.37
2022-09-25T15:05:32.911Z,37.08
2022-09-25T15:08:14.523Z,36.64
2022-09-25T15:10:43.416Z,37.62
2022-09-25T15:13:21.135Z,38.63
2022-09-25T15:16:16.142Z,37.74
2022-09-25T15:18:54.434Z,38.28
2022-09-25T15:21:33.701Z,38.44
2022-09-25T15:24:12.759Z,39.37
2022-09-25T15:27:07.010Z,39.88
2022-09-25T15:29:44.323Z,40.01
2022-09-25T15:32:23.707Z,43.38
2022-09-25T15:35:08.306Z,46.86
2022-09-25T15:37:37.824Z,49.82
2022-09-25T15:40:28.157Z,51.77
2022-09-25T15:42:57.959Z,54.40
2022-09-25T15:45:27.061Z,55.47
2022-09-25T15:47:56.001Z,58.43
2022-09-25T15:50:28.481Z,56.95
2022-09-25T15:53:01.193Z,55.58
2022-09-25T15:55:31.584Z,56.82
2022-09-25T15:58:15.676Z,57.64
2022-09-25T16:01:21.472Z,61.82
2022-09-25T16:04:12.640Z,63.27
2022-09-25T16:06:44.441Z,64.24
2022-09-25T16:09:20.673Z,65.15
2022-09-25T16:11:50.106Z,65.73
2022-09-25T16:14:30.493Z,65.34
2022-09-25T16:17:00.541Z,66.28
2022-09-25T16:19:34.065Z,66.91
2022-09-25T16:22:23.089Z,66.10
2022-09-25T16:24:53.128Z,67.56
2022-09-25T16:27:34.441Z,67.14
2022-09-25T16:30:04.797Z,67.69
2022-09-25T16:32:34.519Z,65.60
2022-09-25T16:35:03.800Z,66.80
2022-09-25T16:37:36.489Z,67.09
2022-09-25T16:40:29.272Z,64.10
2022-09-25T16:42:58.842Z,69.00
2022-09-25T16:45:34.557Z,70.26
2022-09-25T16:48:58.332Z,70.60
2022-09-25T16:51:29.121Z,71.08
2022-09-25T16:54:02.261Z,71.48
2022-09-25T16:56:32.707Z,71.98
2022-09-25T16:59:02.139Z,72.22
2022-09-25T17:01:31.244Z,72.53
2022-09-25T17:04:00.612Z,72.45
2022-09-25T17:06:31.022Z,72.90
2022-09-25T17:09:00.374Z,71.94
2022-09-25T17:11:29.446Z,72.91
2022-09-25T17:13:58.139Z,72.75
2022-09-25T17:16:26.857Z,71.94
2022-09-25T17:19:00.634Z,72.44
2022-09-25T17:21:30.113Z,72.43
2022-09-25T17:23:59.120Z,72.48
2022-09-25T17:26:27.859Z,72.84
2022-09-25T17:28:56.523Z,73.53
2022-09-25T17:31:25.282Z,73.80
2022-09-25T17:33:54.209Z,73.44
2022-09-25T17:36:22.884Z,73.08
2022-09-25T17:38:51.507Z,73.56
2022-09-25T17:41:32.014Z,74.13
2022-09-25T17:44:01.253Z,73.79
2022-09-25T17:46:33.867Z,74.06
2022-09-25T17:49:03.804Z,74.00
2022-09-25T17:51:32.564Z,74.75
2022-09-25T17:54:02.851Z,74.53
2022-09-25T17:56:31.837Z,73.54
2022-09-25T17:59:02.506Z,74.09
2022-09-25T18:01:39.149Z,74.12
2022-09-25T18:04:22.664Z,74.94
2022-09-25T18:06:52.273Z,73.75
2022-09-25T18:09:21.588Z,73.73
2022-09-25T18:11:50.265Z,73.33
2022-09-25T18:14:19.000Z,73.25
2022-09-25T18:16:47.911Z,73.81
2022-09-25T18:19:38.089Z,74.43
2022-09-25T18:22:21.716Z,73.35
2022-09-25T18:24:57.572Z,72.73
2022-09-25T18:27:31.042Z,73.32
2022-09-25T18:30:00.135Z,73.75
2022-09-25T18:32:29.918Z,73.67
2022-09-25T18:34:58.431Z,73.24
2022-09-25T18:37:27.087Z,72.93
2022-09-25T18:39:55.820Z,73.39
2022-09-25T18:42:24.430Z,73.71
2022-09-25T18:44:53.866Z,73.64
2022-09-25T18:47:22.695Z,72.88
2022-09-25T18:49:51.895Z,73.11
2022-09-25T18:52:20.473Z,73.40
2022-09-25T18:54:49.427Z,73.74
2022-09-25T18:57:18.127Z,74.18
2022-09-25T18:59:46.742Z,74.28
2022-09-25T19:02:26.811Z,74.30
2022-09-25T19:04:57.795Z,74.63
2022-09-25T19:07:29.614Z,75.01
2022-09-25T19:09:58.809Z,75.55
2022-09-25T19:12:27.477Z,76.09
2022-09-25T19:14:56.672Z,76.54
2022-09-25T19:17:26.029Z,77.42
2022-09-25T19:19:54.618Z,77.17
2022-09-25T19:22:24.502Z,77.42
2022-09-25T19:24:54.717Z,77.88
2022-09-25T19:27:25.728Z,77.87
2022-09-25T19:29:55.072Z,77.50
2022-09-25T19:32:25.103Z,77.57
2022-09-25T19:34:54.626Z,77.48
2022-09-25T19:37:27.740Z,76.70
2022-09-25T19:40:15.046Z,76.40
2022-09-25T19:42:44.888Z,75.82
2022-09-25T19:45:14.294Z,76.46
2022-09-25T19:47:42.936Z,76.95
2022-09-25T19:50:12.806Z,75.95
2022-09-25T19:52:41.515Z,75.97
2022-09-25T19:55:10.281Z,76.36
2022-09-25T19:57:39.540Z,76.28
2022-09-25T20:00:10.030Z,76.53
2022-09-25T20:02:38.754Z,76.93
2022-09-25T20:05:10.828Z,76.33
2022-09-25T20:07:39.596Z,76.39
2022-09-25T20:10:10.433Z,77.39
2022-09-25T20:12:39.031Z,77.72
2022-09-25T20:15:08.468Z,77.37
2022-09-25T20:17:37.111Z,77.07
2022-09-25T20:20:06.244Z,77.44
2022-09-25T20:22:34.996Z,78.10
2022-09-25T20:25:04.084Z,77.98
2022-09-25T20:27:32.735Z,77.58
2022-09-25T20:30:01.360Z,77.52
2022-09-25T20:32:30.125Z,78.23
2022-09-25T20:34:58.903Z,78.12
2022-09-25T20:37:27.538Z,78.31
2022-09-25T20:39:56.651Z,78.10
2022-09-25T20:42:25.349Z,78.02
2022-09-25T20:44:55.854Z,78.53
2022-09-25T20:47:24.522Z,79.20
2022-09-25T20:49:53.117Z,78.17
2022-09-25T20:52:21.772Z,77.59
2022-09-25T20:54:50.427Z,76.83
2022-09-25T20:57:19.117Z,76.59
2022-09-25T20:59:47.732Z,78.47
2022-09-25T21:02:16.460Z,78.62
2022-09-25T21:04:46.061Z,78.59
2022-09-25T21:07:17.202Z,77.87
2022-09-25T21:09:46.386Z,76.47
2022-09-25T21:12:15.119Z,76.71
2022-09-25T21:14:43.724Z,77.53
2022-09-25T21:17:12.456Z,78.68
2022-09-25T21:19:41.082Z,78.99
2022-09-25T21:22:09.647Z,78.32
2022-09-25T21:24:39.802Z,78.74
2022-09-25T21:27:08.760Z,79.06
2022-09-25T21:29:37.467Z,79.63
2022-09-25T21:32:06.055Z,80.25
2022-09-25T21:34:34.753Z,78.55
2022-09-25T21:37:03.427Z,78.94
2022-09-25T21:39:32.143Z,80.01
2022-09-25T21:42:03.279Z,80.20
2022-09-25T21:44:31.966Z,81.05
2022-09-25T21:47:00.703Z,81.00
2022-09-25T21:49:29.717Z,80.37
2022-09-25T21:51:58.357Z,78.85
2022-09-25T21:54:28.549Z,78.50
2022-09-25T21:56:57.499Z,78.70
2022-09-25T21:59:26.484Z,78.38
2022-09-25T22:01:56.125Z,78.00
2022-09-25T22:04:24.785Z,77.58
2022-09-25T22:06:54.188Z,79.45
2022-09-25T22:09:24.598Z,80.98
2022-09-25T22:11:53.274Z,82.02
2022-09-25T22:14:22.543Z,82.51
2022-09-25T22:16:53.558Z,83.07
2022-09-25T22:19:30.478Z,83.24
2022-09-25T22:22:00.639Z,83.23
2022-09-25T22:24:29.395Z,83.36
2022-09-25T22:26:57.965Z,83.51
2022-09-25T22:29:26.734Z,82.52
2022-09-25T22:31:55.348Z,81.87
2022-09-25T22:34:27.412Z,81.80
2022-09-25T22:36:59.997Z,81.85
2022-09-25T22:39:30.591Z,80.94
2022-09-25T22:41:59.206Z,82.77
2022-09-25T22:44:27.861Z,83.44
2022-09-25T22:46:57.795Z,83.84
2022-09-25T22:49:26.332Z,84.40
2022-09-25T22:51:54.841Z,83.96
2022-09-25T22:54:23.372Z,82.49
2022-09-25T22:56:53.164Z,84.58
2022-09-25T22:59:21.774Z,85.57
2022-09-25T23:01:54.759Z,85.98
2022-09-25T23:04:25.235Z,85.98
2022-09-25T23:06:54.255Z,86.11
2022-09-25T23:09:26.203Z,87.04
2022-09-25T23:11:56.995Z,87.22
2022-09-25T23:14:31.272Z,86.79
2022-09-25T23:17:03.384Z,87.27
2022-09-25T23:19:32.203Z,87.89
2022-09-25T23:22:01.173Z,86.34
2022-09-25T23:24:29.835Z,85.44
2022-09-25T23:26:58.963Z,87.18
2022-09-25T23:29:27.674Z,87.92
2022-09-25T23:31:56.388Z,87.15
2022-09-25T23:34:25.116Z,86.79
2022-09-25T23:36:53.775Z,88.45
2022-09-25T23:39:22.365Z,89.21
2022-09-25T23:41:51.204Z,89.40
2022-09-25T23:44:19.899Z,89.48
2022-09-25T23:46:48.654Z,88.86
2022-09-25T23:49:17.563Z,86.54
2022-09-25T23:51:46.671Z,87.22
2022-09-25T23:54:16.201Z,89.05
2022-09-25T23:56:44.898Z,87.55
2022-09-25T23:59:14.460Z,89.12
